createdAt,value
2022-10-15T00:01:26.127Z,100.00
2022-10-15T00:03:53.730Z,100.00
2022-10-15T00:06:22.500Z,100.00
2022-10-15T00:08:51.320Z,100.00
2022-10-15T00:11:21.194Z,100.00
2022-10-15T00:13:49.314Z,100.00
2022-10-15T00:16:19.565Z,100.00
2022-10-15T00:18:48.028Z,100.00
2022-10-15T00:21:17.620Z,100.00
2022-10-15T00:23:45.916Z,100.00
2022-10-15T00:26:17.616Z,100.00
2022-10-15T00:28:45.823Z,100.00
2022-10-15T00:31:15.620Z,100.00
2022-10-15T00:33:44.067Z,100.00
2022-10-15T00:36:14.362Z,100.00
2022-10-15T00:38:42.608Z,100.00
2022-10-15T00:41:16.624Z,100.00
2022-10-15T00:43:46.427Z,100.00
2022-10-15T00:46:20.504Z,100.00
2022-10-15T00:48:50.316Z,100.00
2022-10-15T00:51:20.157Z,100.00
2022-10-15T00:53:49.248Z,100.00
2022-10-15T00:56:20.965Z,100.00
2022-10-15T00:58:49.659Z,100.00
2022-10-15T01:01:17.180Z,100.00
2022-10-15T01:03:44.686Z,100.00
2022-10-15T01:06:12.128Z,100.00
2022-10-15T01:08:39.744Z,100.00
2022-10-15T01:11:25.057Z,100.00
2022-10-15T01:14:05.132Z,100.00
2022-10-15T01:16:41.064Z,100.00
2022-10-15T01:19:24.557Z,100.00
2022-10-15T01:21:56.658Z,100.00
2022-10-15T01:25:03.752Z,100.00
2022-10-15T01:27:39.553Z,100.00
2022-10-15T01:30:31.659Z,100.00
2022-10-15T01:33:11.448Z,100.00
2022-10-15T01:35:48.971Z,100.00
2022-10-15T01:38:31.130Z,100.00
2022-10-15T01:41:01.716Z,100.00
2022-10-15T01:43:33.907Z,100.00
2022-10-15T01:46:07.374Z,100.00
2022-10-15T01:48:37.356Z,100.00
2022-10-15T01:51:07.237Z,100.00
2022-10-15T01:53:37.034Z,100.00
2022-10-15T01:56:09.525Z,100.00
2022-10-15T01:58:40.106Z,100.00
2022-10-15T02:01:09.223Z,100.00
2022-10-15T02:03:45.922Z,100.00
2022-10-15T02:06:18.428Z,100.00
2022-10-15T02:08:57.162Z,100.00
2022-10-15T02:11:24.922Z,100.00
2022-10-15T02:14:02.614Z,100.00
2022-10-15T02:16:45.271Z,100.00
2022-10-15T02:19:19.370Z,100.00
2022-10-15T02:21:51.112Z,100.00
2022-10-15T02:24:23.118Z,99.99
2022-10-15T02:26:53.892Z,99.85
2022-10-15T02:29:24.816Z,99.70
2022-10-15T02:31:55.085Z,99.74
2022-10-15T02:34:26.155Z,100.00
2022-10-15T02:36:54.542Z,100.00
2022-10-15T02:39:25.049Z,100.00
2022-10-15T02:41:53.336Z,100.00
2022-10-15T02:44:20.816Z,100.00
2022-10-15T02:46:48.258Z,100.00
2022-10-15T02:49:17.038Z,100.00
2022-10-15T02:51:44.424Z,100.00
2022-10-15T02:54:11.893Z,100.00
2022-10-15T02:56:39.852Z,100.00
2022-10-15T02:59:07.472Z,100.00
2022-10-15T03:01:35.608Z,100.00
2022-10-15T03:04:03.356Z,100.00
2022-10-15T03:06:32.115Z,100.00
2022-10-15T03:08:59.546Z,100.00
2022-10-15T03:11:26.972Z,100.00
2022-10-15T03:13:54.429Z,100.00
2022-10-15T03:16:21.961Z,100.00
2022-10-15T03:18:49.364Z,100.00
2022-10-15T03:21:16.916Z,100.00
2022-10-15T03:23:45.661Z,100.00
2022-10-15T03:26:13.076Z,100.00
2022-10-15T03:28:40.618Z,100.00
2022-10-15T03:31:08.253Z,100.00
2022-10-15T03:33:35.650Z,100.00
2022-10-15T03:36:03.057Z,100.00
2022-10-15T03:38:30.459Z,100.00
2022-10-15T03:40:59.231Z,100.00
2022-10-15T03:43:27.144Z,100.00
2022-10-15T03:45:54.655Z,100.00
2022-10-15T03:48:22.419Z,100.00
2022-10-15T03:50:49.821Z,100.00
2022-10-15T03:53:17.255Z,100.00
2022-10-15T03:55:44.660Z,100.00
2022-10-15T03:58:13.424Z,100.00
2022-10-15T04:00:42.492Z,100.00
2022-10-15T04:03:09.966Z,100.00
2022-10-15T04:05:37.724Z,100.00
2022-10-15T04:08:05.531Z,100.00
2022-10-15T04:10:32.975Z,100.00
2022-10-15T04:13:00.435Z,100.00
2022-10-15T04:15:29.173Z,100.00
2022-10-15T04:17:56.715Z,100.00
2022-10-15T04:20:24.463Z,100.00
2022-10-15T04:22:51.872Z,100.00
2022-10-15T04:25:19.275Z,100.00
2022-10-15T04:27:46.691Z,100.00
2022-10-15T04:30:15.076Z,100.00
2022-10-15T04:32:43.852Z,100.00
2022-10-15T04:35:11.376Z,100.00
2022-10-15T04:37:38.839Z,100.00
2022-10-15T04:40:07.556Z,100.00
2022-10-15T04:42:35.181Z,100.00
2022-10-15T04:45:02.637Z,100.00
2022-10-15T04:47:30.030Z,100.00
2022-10-15T04:49:58.799Z,100.00
2022-10-15T04:52:26.212Z,100.00
2022-10-15T04:54:53.631Z,100.00
2022-10-15T04:57:21.361Z,100.00
2022-10-15T04:59:52.555Z,100.00
2022-10-15T05:02:22.813Z,100.00
2022-10-15T05:04:50.517Z,100.00
2022-10-15T05:07:19.323Z,100.00
2022-10-15T05:09:46.770Z,100.00
2022-10-15T05:12:14.190Z,100.00
2022-10-15T05:14:41.779Z,100.00
2022-10-15T05:17:09.204Z,100.00
2022-10-15T05:19:36.612Z,100.00
2022-10-15T05:22:04.037Z,100.00
2022-10-15T05:24:32.801Z,100.00
2022-10-15T05:27:02.825Z,100.00
2022-10-15T05:29:31.025Z,100.00
2022-10-15T05:31:58.489Z,100.00
2022-10-15T05:34:28.493Z,100.00
2022-10-15T05:36:55.881Z,100.00
2022-10-15T05:39:23.833Z,100.00
2022-10-15T05:41:53.422Z,100.00
2022-10-15T05:44:20.851Z,100.00
2022-10-15T05:46:48.379Z,100.00
2022-10-15T05:49:16.052Z,100.00
2022-10-15T05:51:43.531Z,100.00
2022-10-15T05:54:11.206Z,100.00
2022-10-15T05:56:38.616Z,100.00
2022-10-15T05:59:07.404Z,100.00
2022-10-15T06:01:34.912Z,100.00
2022-10-15T06:04:02.384Z,100.00
2022-10-15T06:06:29.811Z,100.00
2022-10-15T06:08:59.714Z,100.00
2022-10-15T06:11:27.200Z,100.00
2022-10-15T06:13:54.680Z,100.00
2022-10-15T06:16:24.176Z,100.00
2022-10-15T06:18:52.984Z,100.00
2022-10-15T06:21:20.389Z,100.00
2022-10-15T06:23:47.885Z,100.00
2022-10-15T06:26:15.343Z,100.00
2022-10-15T06:28:42.811Z,100.00
2022-10-15T06:31:10.599Z,100.00
2022-10-15T06:33:39.496Z,100.00
2022-10-15T06:36:08.903Z,100.00
2022-10-15T06:38:36.943Z,100.00
2022-10-15T06:41:05.306Z,100.00
2022-10-15T06:43:35.169Z,100.00
2022-10-15T06:46:03.980Z,100.00
2022-10-15T06:48:32.572Z,100.00
2022-10-15T06:51:02.256Z,100.00
2022-10-15T06:53:31.171Z,100.00
2022-10-15T06:55:59.411Z,100.00
2022-10-15T06:58:27.655Z,100.00
2022-10-15T07:01:00.853Z,100.00
2022-10-15T07:03:28.735Z,100.00
2022-10-15T07:05:56.308Z,100.00
2022-10-15T07:08:25.916Z,100.00
2022-10-15T07:10:53.398Z,100.00
2022-10-15T07:13:20.848Z,100.00
2022-10-15T07:15:53.686Z,100.00
2022-10-15T07:18:21.170Z,100.00
2022-10-15T07:20:48.913Z,100.00
2022-10-15T07:23:16.335Z,100.00
2022-10-15T07:25:45.136Z,100.00
2022-10-15T07:28:12.536Z,100.00
2022-10-15T07:30:39.931Z,100.00
2022-10-15T07:33:07.400Z,100.00
2022-10-15T07:35:34.888Z,100.00
2022-10-15T07:38:02.837Z,100.00
2022-10-15T07:40:30.521Z,100.00
2022-10-15T07:43:00.136Z,100.00
2022-10-15T07:45:28.038Z,100.00
2022-10-15T07:47:55.494Z,99.86
2022-10-15T07:50:22.937Z,99.65
2022-10-15T07:52:50.484Z,99.59
2022-10-15T07:55:18.049Z,98.93
2022-10-15T07:57:45.480Z,99.34
2022-10-15T08:00:14.787Z,99.39
2022-10-15T08:02:42.213Z,98.96
2022-10-15T08:05:10.277Z,99.38
2022-10-15T08:07:37.763Z,99.09
2022-10-15T08:10:06.349Z,98.16
2022-10-15T08:12:33.814Z,98.34
2022-10-15T08:15:01.223Z,98.25
2022-10-15T08:17:29.988Z,98.10
2022-10-15T08:19:57.381Z,98.28
2022-10-15T08:22:25.268Z,97.79
2022-10-15T08:24:53.131Z,98.15
2022-10-15T08:27:20.543Z,98.19
2022-10-15T08:29:48.008Z,98.00
2022-10-15T08:32:15.415Z,97.44
2022-10-15T08:34:44.252Z,97.58
2022-10-15T08:37:11.793Z,96.94
2022-10-15T08:39:39.410Z,97.15
2022-10-15T08:42:14.573Z,96.22
2022-10-15T08:44:45.852Z,96.29
2022-10-15T08:47:27.149Z,95.69
2022-10-15T08:49:59.271Z,95.18
2022-10-15T08:52:37.415Z,95.77
2022-10-15T08:55:05.615Z,95.27
2022-10-15T08:57:41.070Z,96.65
2022-10-15T09:00:15.016Z,95.84
2022-10-15T09:02:51.312Z,95.88
2022-10-15T09:05:29.824Z,95.41
2022-10-15T09:08:05.420Z,94.98
2022-10-15T09:10:39.257Z,94.74
2022-10-15T09:13:15.479Z,94.96
2022-10-15T09:15:51.797Z,94.37
2022-10-15T09:18:23.697Z,95.04
2022-10-15T09:20:53.540Z,94.89
2022-10-15T09:23:24.331Z,94.50
2022-10-15T09:25:59.319Z,95.48
2022-10-15T09:28:38.056Z,95.23
2022-10-15T09:31:09.431Z,95.70
2022-10-15T09:33:42.683Z,96.38
2022-10-15T09:36:22.660Z,96.84
2022-10-15T09:39:05.827Z,98.00
2022-10-15T09:41:40.739Z,98.32
2022-10-15T09:44:14.035Z,97.87
2022-10-15T09:46:45.991Z,98.68
2022-10-15T09:49:19.290Z,99.09
2022-10-15T09:51:58.689Z,99.24
2022-10-15T09:54:32.194Z,99.01
2022-10-15T09:56:59.638Z,99.37
2022-10-15T09:59:27.971Z,98.92
2022-10-15T10:02:00.915Z,99.11
2022-10-15T10:04:30.036Z,98.66
2022-10-15T10:07:01.250Z,98.83
2022-10-15T10:09:32.923Z,98.28
2022-10-15T10:12:02.883Z,97.50
2022-10-15T10:14:33.054Z,97.47
2022-10-15T10:17:06.716Z,97.83
2022-10-15T10:19:34.223Z,96.52
2022-10-15T10:22:15.068Z,96.45
2022-10-15T10:24:42.538Z,96.59
2022-10-15T10:27:25.499Z,96.48
2022-10-15T10:30:00.411Z,96.82
2022-10-15T10:32:30.704Z,96.53
2022-10-15T10:34:59.702Z,95.53
2022-10-15T10:37:29.354Z,96.06
2022-10-15T10:39:59.045Z,96.13
2022-10-15T10:42:31.873Z,95.57
2022-10-15T10:45:18.584Z,95.12
2022-10-15T10:47:46.785Z,95.47
2022-10-15T10:50:30.240Z,95.58
2022-10-15T10:53:11.140Z,94.81
2022-10-15T10:55:40.406Z,95.22
2022-10-15T10:58:20.128Z,95.87
2022-10-15T11:00:52.773Z,95.83
2022-10-15T11:03:29.427Z,96.58
2022-10-15T11:06:04.653Z,96.98
2022-10-15T11:08:41.515Z,96.75
2022-10-15T11:11:19.397Z,97.12
2022-10-15T11:13:57.096Z,97.02
2022-10-15T11:16:34.078Z,96.40
2022-10-15T11:19:25.418Z,97.02
2022-10-15T11:25:07.643Z,97.66
2022-10-15T11:27:52.192Z,98.50
2022-10-15T11:30:31.231Z,98.36
2022-10-15T11:33:14.548Z,97.69
2022-10-15T11:35:53.949Z,97.19
2022-10-15T11:38:30.182Z,96.69
2022-10-15T11:41:15.249Z,96.66
2022-10-15T11:43:56.485Z,97.83
2022-10-15T11:46:32.715Z,97.63
2022-10-15T11:49:12.231Z,96.33
2022-10-15T11:51:56.896Z,96.56
2022-10-15T11:54:31.716Z,96.50
2022-10-15T11:57:04.652Z,96.31
2022-10-15T11:59:38.539Z,96.58
2022-10-15T12:02:13.806Z,95.06
2022-10-15T12:04:45.749Z,95.92
2022-10-15T12:07:19.496Z,96.38
2022-10-15T12:09:50.256Z,95.61
2022-10-15T12:12:29.238Z,95.04
2022-10-15T12:15:08.648Z,95.07
2022-10-15T12:17:47.064Z,94.29
2022-10-15T12:20:16.885Z,93.70
2022-10-15T12:22:55.851Z,94.13
2022-10-15T12:25:41.658Z,94.71
2022-10-15T12:28:18.386Z,94.27
2022-10-15T12:30:59.461Z,91.42
2022-10-15T12:33:34.156Z,91.06
2022-10-15T12:36:06.007Z,91.70
2022-10-15T12:38:35.403Z,92.18
2022-10-15T12:41:07.079Z,93.17
2022-10-15T12:43:39.148Z,92.17
2022-10-15T12:46:09.142Z,92.78
2022-10-15T12:48:40.409Z,92.30
2022-10-15T12:51:37.659Z,93.53
2022-10-15T12:54:42.776Z,94.13
2022-10-15T12:57:47.579Z,93.94
2022-10-15T13:00:40.422Z,93.31
2022-10-15T13:03:36.375Z,92.16
2022-10-15T13:06:27.040Z,92.46
2022-10-15T13:09:01.609Z,92.51
2022-10-15T13:11:31.779Z,91.94
2022-10-15T13:14:02.412Z,91.63
2022-10-15T13:16:32.239Z,92.04
2022-10-15T13:19:00.279Z,90.58
2022-10-15T13:21:50.417Z,89.37
2022-10-15T13:24:20.901Z,88.71
2022-10-15T13:26:49.081Z,88.59
2022-10-15T13:29:17.844Z,89.56
2022-10-15T13:31:48.058Z,90.69
2022-10-15T13:34:25.010Z,91.64
2022-10-15T13:36:53.619Z,89.97
2022-10-15T13:39:29.358Z,90.25
2022-10-15T13:42:08.769Z,90.27
2022-10-15T13:44:36.756Z,90.92
2022-10-15T13:47:24.488Z,92.36
2022-10-15T13:49:51.999Z,91.99
2022-10-15T13:52:19.656Z,93.08
2022-10-15T13:54:47.612Z,92.69
2022-10-15T13:57:17.883Z,89.78
2022-10-15T13:59:47.103Z,89.03
2022-10-15T14:02:16.192Z,88.24
2022-10-15T14:04:44.780Z,88.34
2022-10-15T14:07:24.720Z,87.87
2022-10-15T14:09:52.679Z,89.50
2022-10-15T14:12:20.151Z,89.21
2022-10-15T14:14:49.108Z,90.03
2022-10-15T14:17:25.360Z,89.21
2022-10-15T14:20:14.811Z,89.30
2022-10-15T14:22:43.665Z,89.88
2022-10-15T14:27:46.429Z,90.48
2022-10-15T14:30:15.168Z,89.33
2022-10-15T14:32:48.414Z,89.59
2022-10-15T14:35:29.832Z,89.59
2022-10-15T14:38:01.890Z,89.32
2022-10-15T14:40:29.568Z,88.57
2022-10-15T14:43:05.856Z,88.07
2022-10-15T14:45:41.176Z,87.73
2022-10-15T14:48:13.287Z,87.25
2022-10-15T14:50:44.278Z,87.59
2022-10-15T14:53:18.771Z,87.09
2022-10-15T14:55:52.212Z,87.61
2022-10-15T14:58:23.286Z,86.89
2022-10-15T15:00:57.899Z,86.97
2022-10-15T15:03:31.654Z,87.23
2022-10-15T15:05:59.240Z,87.01
2022-10-15T15:08:27.529Z,86.84
2022-10-15T15:10:58.320Z,86.82
2022-10-15T15:13:28.103Z,87.03
2022-10-15T15:15:55.687Z,86.69
2022-10-15T15:18:23.627Z,87.31
2022-10-15T15:20:52.411Z,86.92
2022-10-15T15:23:21.943Z,86.35
2022-10-15T15:25:50.332Z,87.17
2022-10-15T15:28:20.399Z,87.11
2022-10-15T15:30:52.183Z,86.63
2022-10-15T15:33:19.566Z,87.47
2022-10-15T15:35:51.433Z,87.63
2022-10-15T15:38:21.597Z,87.76
2022-10-15T15:40:49.371Z,88.41
2022-10-15T15:43:18.452Z,88.43
2022-10-15T15:45:47.552Z,88.21
2022-10-15T15:48:14.992Z,88.69
2022-10-15T15:50:42.604Z,89.29
2022-10-15T15:53:12.920Z,88.82
2022-10-15T15:55:41.659Z,89.36
2022-10-15T15:58:09.090Z,89.45
2022-10-15T16:00:36.543Z,88.72
2022-10-15T16:03:04.018Z,89.22
2022-10-15T16:05:31.449Z,89.31
2022-10-15T16:07:58.848Z,89.53
2022-10-15T16:10:26.261Z,89.85
2022-10-15T16:12:56.136Z,89.57
2022-10-15T16:15:23.534Z,90.10
2022-10-15T16:17:50.971Z,90.53
2022-10-15T16:20:18.553Z,90.29
2022-10-15T16:22:45.972Z,90.92
2022-10-15T16:25:13.379Z,90.81
2022-10-15T16:27:40.777Z,90.85
2022-10-15T16:30:10.904Z,91.16
2022-10-15T16:32:38.447Z,91.86
2022-10-15T16:35:06.776Z,90.79
2022-10-15T16:37:34.206Z,91.56
2022-10-15T16:40:01.702Z,92.07
2022-10-15T16:42:29.203Z,92.99
2022-10-15T16:44:56.615Z,92.92
2022-10-15T16:47:25.575Z,93.22
2022-10-15T16:49:55.351Z,92.35
2022-10-15T16:52:23.050Z,92.00
2022-10-15T16:54:50.768Z,91.45
2022-10-15T16:57:18.197Z,91.71
2022-10-15T16:59:45.614Z,92.28
2022-10-15T17:02:13.032Z,91.94
2022-10-15T17:04:41.820Z,91.72
2022-10-15T17:07:09.198Z,91.44
2022-10-15T17:09:37.443Z,92.14
2022-10-15T17:12:05.576Z,92.58
2022-10-15T17:14:33.087Z,92.35
2022-10-15T17:17:00.475Z,92.69
2022-10-15T17:19:30.610Z,93.12
2022-10-15T17:22:02.120Z,93.24
2022-10-15T17:24:29.712Z,92.92
2022-10-15T17:26:57.873Z,92.97
2022-10-15T17:29:29.061Z,93.18
2022-10-15T17:32:01.634Z,92.79
2022-10-15T17:34:29.037Z,93.11
2022-10-15T17:36:57.058Z,93.03
2022-10-15T17:39:25.891Z,92.96
2022-10-15T17:41:53.297Z,92.77
2022-10-15T17:44:21.635Z,92.97
2022-10-15T17:49:21.456Z,93.02
2022-10-15T17:51:48.898Z,93.37
2022-10-15T17:54:16.614Z,93.48
2022-10-15T17:56:45.343Z,93.19
2022-10-15T17:59:13.459Z,93.15
2022-10-15T18:01:59.848Z,93.39
2022-10-15T18:04:28.487Z,93.69
2022-10-15T18:06:55.958Z,93.52
2022-10-15T18:09:23.430Z,93.74
2022-10-15T18:11:52.291Z,93.52
2022-10-15T18:16:48.144Z,93.65
2022-10-15T18:19:15.638Z,93.38
2022-10-15T18:21:47.007Z,93.85
2022-10-15T18:24:19.101Z,94.24
2022-10-15T18:26:46.502Z,94.14
2022-10-15T18:29:15.267Z,93.96
2022-10-15T18:31:42.710Z,94.07
2022-10-15T18:34:10.237Z,94.56
2022-10-15T18:36:41.367Z,94.66
2022-10-15T18:39:08.867Z,94.97
2022-10-15T18:41:38.068Z,94.77
2022-10-15T18:44:07.685Z,94.88
2022-10-15T18:46:38.032Z,94.91
2022-10-15T18:49:05.470Z,94.61
2022-10-15T18:51:32.960Z,94.16
2022-10-15T18:54:01.363Z,94.26
2022-10-15T18:56:29.269Z,94.34
2022-10-15T18:58:56.830Z,94.70
2022-10-15T19:01:27.628Z,94.31
2022-10-15T19:03:57.681Z,94.01
2022-10-15T19:06:27.763Z,94.39
2022-10-15T19:08:57.765Z,94.15
2022-10-15T19:11:25.407Z,93.79
2022-10-15T19:13:52.898Z,93.72
2022-10-15T19:16:20.312Z,93.65
2022-10-15T19:18:47.756Z,93.38
2022-10-15T19:21:16.561Z,93.48
2022-10-15T19:23:44.073Z,93.26
2022-10-15T19:26:13.592Z,93.22
2022-10-15T19:28:41.418Z,93.22
2022-10-15T19:31:11.244Z,93.59
2022-10-15T19:33:38.775Z,94.09
2022-10-15T19:36:06.491Z,94.00
2022-10-15T19:38:35.516Z,94.53
2022-10-15T19:41:04.524Z,94.95
2022-10-15T19:43:32.005Z,94.22
2022-10-15T19:46:03.903Z,94.20
2022-10-15T19:48:32.004Z,94.30
2022-10-15T19:51:02.164Z,94.37
2022-10-15T19:53:30.264Z,94.74
2022-10-15T19:56:00.673Z,94.90
2022-10-15T19:58:28.264Z,95.39
2022-10-15T20:00:56.415Z,95.48
2022-10-15T20:03:25.289Z,95.87
2022-10-15T20:05:52.790Z,95.97
2022-10-15T20:08:20.423Z,95.68
2022-10-15T20:10:51.932Z,96.22
2022-10-15T20:13:22.066Z,96.88
2022-10-15T20:15:51.181Z,97.18
2022-10-15T20:18:19.579Z,97.40
2022-10-15T20:20:47.389Z,97.26
2022-10-15T20:23:15.248Z,97.37
2022-10-15T20:25:43.767Z,97.20
2022-10-15T20:28:12.127Z,97.09
2022-10-15T20:30:41.534Z,97.18
2022-10-15T20:33:10.137Z,97.12
2022-10-15T20:35:38.949Z,97.08
2022-10-15T20:38:07.324Z,97.08
2022-10-15T20:40:36.196Z,96.69
2022-10-15T20:43:03.587Z,96.62
2022-10-15T20:45:37.673Z,96.79
2022-10-15T20:48:07.776Z,96.91
2022-10-15T20:50:36.621Z,97.39
2022-10-15T20:53:04.211Z,97.73
2022-10-15T20:55:31.627Z,97.66
2022-10-15T20:57:59.096Z,97.38
2022-10-15T21:00:26.489Z,96.74
2022-10-15T21:02:53.875Z,96.57
2022-10-15T21:05:22.996Z,95.84
2022-10-15T21:07:50.408Z,95.65
2022-10-15T21:10:17.879Z,94.89
2022-10-15T21:12:45.412Z,95.08
2022-10-15T21:15:12.836Z,95.06
2022-10-15T21:17:40.888Z,94.97
2022-10-15T21:20:09.696Z,95.33
2022-10-15T21:22:38.430Z,94.88
2022-10-15T21:25:06.948Z,94.84
2022-10-15T21:27:34.664Z,95.21
2022-10-15T21:30:02.067Z,95.11
2022-10-15T21:32:29.476Z,95.56
2022-10-15T21:34:57.305Z,96.07
2022-10-15T21:37:25.049Z,95.99
2022-10-15T21:39:53.947Z,96.29
2022-10-15T21:42:21.338Z,96.37
2022-10-15T21:44:48.760Z,95.95
2022-10-15T21:47:16.179Z,95.99
2022-10-15T21:49:45.599Z,96.37
2022-10-15T21:52:13.375Z,96.40
2022-10-15T21:54:40.873Z,96.70
2022-10-15T21:57:09.604Z,96.95
2022-10-15T21:59:37.052Z,96.89
2022-10-15T22:02:04.627Z,96.78
2022-10-15T22:04:34.126Z,97.13
2022-10-15T22:07:01.651Z,96.90
2022-10-15T22:09:29.308Z,97.42
2022-10-15T22:11:56.802Z,97.27
2022-10-15T22:14:25.578Z,97.61
2022-10-15T22:16:53.024Z,97.42
2022-10-15T22:19:20.440Z,97.55
2022-10-15T22:21:47.884Z,97.58
2022-10-15T22:24:19.060Z,97.59
2022-10-15T22:26:48.397Z,97.40
2022-10-15T22:29:18.808Z,97.56
2022-10-15T22:31:47.936Z,97.30
2022-10-15T22:34:15.532Z,97.62
2022-10-15T22:36:42.972Z,97.67
2022-10-15T22:39:13.801Z,97.41
2022-10-15T22:41:43.224Z,97.34
2022-10-15T22:44:14.616Z,97.08
2022-10-15T22:46:45.909Z,97.17
2022-10-15T22:49:15.089Z,97.27
2022-10-15T22:51:43.134Z,96.80
2022-10-15T22:54:10.597Z,96.86
2022-10-15T22:56:38.232Z,96.80
2022-10-15T22:59:06.066Z,96.56
2022-10-15T23:01:35.323Z,96.25
2022-10-15T23:04:04.798Z,95.95
2022-10-15T23:06:36.176Z,96.00
2022-10-15T23:09:05.633Z,95.96
2022-10-15T23:11:35.833Z,95.44
2022-10-15T23:14:05.726Z,95.35
2022-10-15T23:16:34.674Z,94.85
2022-10-15T23:19:04.306Z,94.53
2022-10-15T23:21:35.807Z,94.83
2022-10-15T23:24:04.002Z,94.98
2022-10-15T23:26:32.185Z,95.55
2022-10-15T23:29:01.334Z,95.42
2022-10-15T23:31:31.120Z,95.50
2022-10-15T23:33:59.504Z,95.19
2022-10-15T23:36:28.412Z,95.13
2022-10-15T23:38:59.290Z,95.19
2022-10-15T23:41:28.124Z,94.97
2022-10-15T23:43:55.850Z,95.00
2022-10-15T23:46:23.471Z,94.81
2022-10-15T23:48:51.165Z,95.26
2022-10-15T23:51:21.451Z,95.24
2022-10-15T23:53:49.277Z,95.65
2022-10-15T23:56:18.558Z,95.51
2022-10-15T23:58:48.728Z,95.02
